首页
METAR-TAF:

METAR-TAF

机场 :

坎贝尔河, 不列颠哥伦比亚, 加拿大

纬度: 49-57N, 经度: 125-16W, 海拔: 106米

当前天气观测

该预报发布于1小时和9分钟前的20:00 UTC
风速10节,风向东转东北,在东北东转东南之间变化
温度 11°C
湿度 62%
气压 1018 hPa
能見度: 48.3公里
少量云层高于2000英尺
多云层高于4600英尺
多云层高于25000英尺
附近有阵雨

METAR: CYBL 182000Z 07010KT 050V110 30SM VCSH FEW020 BKN046 BKN250 11/04 A3005 RMK CF1CU4CI1 SLP178

时间: 14:09 (21:09 UTC)

预报

该预报发布于2小时和31分钟前的18:38 UTC
预报有效从18日的 19点(UTC)到 19日的 04点(UTC)
风速6节,风向
能見度: 10公里
散云层高于3000英尺
多云层高于8000英尺
短暂存在
从 18日的 19点(UTC)到 18日的 21点(UTC)
能見度: 10公里
多云层高于4000英尺
小阵雨
从 18日的 2100点(UTC)
风速8节,风向东转东南
能見度: 10公里
散云层高于2000英尺
多云层高于6000英尺
短暂存在
从 18日的 21点(UTC)到 19日的 04点(UTC)
能見度: 8.0公里
多云层高于2000英尺
小阵雨, 轻雾
几率 30%
从 18日的 21点(UTC)到 19日的 04点(UTC)
能見度: 4.8公里
多云层高于2000英尺, 积雨云.
雷暴, 雨, 轻雾

TAF: CYBL 181838Z 1819/1904 09006KT P6SM SCT030 BKN080 TEMPO 1819/1821 P6SM -SHRA BKN040 FM182100 11008KT P6SM SCT020 BKN060 TEMPO 1821/1904 5SM -SHRA BR BKN020 PROB30 1821/1904 3SM TSRA BR BKN020CB RMK NXT FCST BY 190100Z

超过4000个机场的气象观测和天气预报(METAR&TAF报告)。

可查询的气象台以黄色和红色小点在地图上表示。

将鼠标移到小点上方,可查看气象台名称。

然后点击查看天气观测和预报。

如需切换地图:点击带黑十字的绿色按钮放大地图;点击带横线的绿色按钮缩小地图;或者点击绿色箭头查看邻近地区的地图。


METAR-TAF: